首页
METAR-TAF:

METAR-TAF

机场 :

Benbecula, 苏格兰

纬度: 57-28N, 经度: 007-22W, 海拔: 6米

当前天气观测

该预报发布于13分钟前的06:50 UTC
风速9节,风向
温度 7°C
湿度 76%
气压 1018 hPa
能见度10公里或以上

METAR: EGPL 200650Z AUTO 01009KT 9999 SCT044/// 07/03 Q1018

时间: 08:03 (07:03 UTC)

预报

该预报发布于2小时和1分钟前的05:02 UTC
预报有效从20日的 06点(UTC)到 20日的 15点(UTC)
风速16节,风向
能见度10公里或以上
散云层高于4500英尺
几率 30% :
短暂存在
从 20日的 06点(UTC)到 20日的 09点(UTC)
风速20节,风向北转东北,有时为30节阵风

TAF: EGPL 200502Z 2006/2015 01016KT 9999 SCT045 PROB30 TEMPO 2006/2009 02020G30KT

超过4000个机场的气象观测和天气预报(METAR&TAF报告)。

可查询的气象台以黄色和红色小点在地图上表示。

将鼠标移到小点上方,可查看气象台名称。

然后点击查看天气观测和预报。

如需切换地图:点击带黑十字的绿色按钮放大地图;点击带横线的绿色按钮缩小地图;或者点击绿色箭头查看邻近地区的地图。


METAR-TAF: